sensor_id;sensor_type;location;lat;lon;timestamp;P1;durP1;ratioP1;P2;durP2;ratioP2
3625;SDS011;1827;50.534;8.316;2022-09-09T03:50:46;18.93;;;2.70;;
3625;SDS011;1827;50.534;8.316;2022-09-09T05:14:58;20.40;;;2.47;;
3625;SDS011;1827;50.534;8.316;2022-09-09T05:17:25;17.43;;;2.30;;
3625;SDS011;1827;50.534;8.316;2022-09-09T05:19:51;18.13;;;2.60;;
3625;SDS011;1827;50.534;8.316;2022-09-09T05:22:21;17.77;;;2.37;;
3625;SDS011;1827;50.534;8.316;2022-09-09T05:24:49;18.03;;;2.50;;
3625;SDS011;1827;50.534;8.316;2022-09-09T05:27:18;17.30;;;2.20;;
3625;SDS011;1827;50.534;8.316;2022-09-09T05:29:47;17.97;;;2.60;;
3625;SDS011;1827;50.534;8.316;2022-09-09T05:32:13;19.03;;;2.70;;
3625;SDS011;1827;50.534;8.316;2022-09-09T05:34:44;18.33;;;2.70;;
3625;SDS011;1827;50.534;8.316;2022-09-09T05:37:10;21.10;;;2.67;;
3625;SDS011;1827;50.534;8.316;2022-09-09T05:39:36;20.13;;;2.90;;
3625;SDS011;1827;50.534;8.316;2022-09-09T05:42:02;20.07;;;2.77;;
3625;SDS011;1827;50.534;8.316;2022-09-09T05:44:31;19.30;;;2.60;;
3625;SDS011;1827;50.534;8.316;2022-09-09T05:46:58;22.60;;;3.23;;
3625;SDS011;1827;50.534;8.316;2022-09-09T05:49:24;36.23;;;6.20;;
3625;SDS011;1827;50.534;8.316;2022-09-09T05:51:49;40.70;;;7.10;;
3625;SDS011;1827;50.534;8.316;2022-09-09T05:54:17;25.73;;;4.47;;
3625;SDS011;1827;50.534;8.316;2022-09-09T05:56:46;35.83;;;7.87;;
3625;SDS011;1827;50.534;8.316;2022-09-09T05:59:16;35.50;;;6.67;;
3625;SDS011;1827;50.534;8.316;2022-09-09T06:01:43;35.17;;;6.90;;
3625;SDS011;1827;50.534;8.316;2022-09-09T06:04:17;22.07;;;3.40;;
3625;SDS011;1827;50.534;8.316;2022-09-09T06:06:45;26.50;;;5.10;;
3625;SDS011;1827;50.534;8.316;2022-09-09T06:09:15;20.13;;;3.13;;
3625;SDS011;1827;50.534;8.316;2022-09-09T06:11:42;20.70;;;3.23;;
3625;SDS011;1827;50.534;8.316;2022-09-09T06:14:09;22.90;;;2.70;;
3625;SDS011;1827;50.534;8.316;2022-09-09T06:16:36;22.63;;;2.90;;
3625;SDS011;1827;50.534;8.316;2022-09-09T06:19:13;25.60;;;4.33;;
3625;SDS011;1827;50.534;8.316;2022-09-09T06:21:40;23.00;;;3.00;;
3625;SDS011;1827;50.534;8.316;2022-09-09T06:24:07;17.80;;;2.30;;
3625;SDS011;1827;50.534;8.316;2022-09-09T06:26:35;18.50;;;2.57;;
3625;SDS011;1827;50.534;8.316;2022-09-09T06:29:02;24.00;;;2.53;;
3625;SDS011;1827;50.534;8.316;2022-09-09T06:31:30;18.27;;;2.37;;
3625;SDS011;1827;50.534;8.316;2022-09-09T06:34:07;19.70;;;2.63;;
3625;SDS011;1827;50.534;8.316;2022-09-09T06:36:35;19.23;;;3.17;;
3625;SDS011;1827;50.534;8.316;2022-09-09T06:39:02;17.80;;;2.60;;
3625;SDS011;1827;50.534;8.316;2022-09-09T06:41:30;16.87;;;2.30;;
3625;SDS011;1827;50.534;8.316;2022-09-09T06:44:00;21.23;;;2.23;;
3625;SDS011;1827;50.534;8.316;2022-09-09T06:46:40;16.87;;;2.57;;
3625;SDS011;1827;50.534;8.316;2022-09-09T06:49:08;17.50;;;2.40;;
3625;SDS011;1827;50.534;8.316;2022-09-09T06:51:35;18.00;;;2.23;;
3625;SDS011;1827;50.534;8.316;2022-09-09T06:54:09;18.13;;;2.83;;
3625;SDS011;1827;50.534;8.316;2022-09-09T06:56:36;19.73;;;2.47;;
3625;SDS011;1827;50.534;8.316;2022-09-09T06:59:11;20.30;;;2.37;;
3625;SDS011;1827;50.534;8.316;2022-09-09T07:01:38;25.50;;;2.53;;
3625;SDS011;1827;50.534;8.316;2022-09-09T07:04:12;15.57;;;2.03;;
3625;SDS011;1827;50.534;8.316;2022-09-09T07:06:41;19.10;;;2.37;;
3625;SDS011;1827;50.534;8.316;2022-09-09T07:09:12;18.00;;;2.10;;
3625;SDS011;1827;50.534;8.316;2022-09-09T07:11:46;18.53;;;2.17;;
3625;SDS011;1827;50.534;8.316;2022-09-09T07:14:14;19.40;;;2.07;;
3625;SDS011;1827;50.534;8.316;2022-09-09T07:16:44;23.20;;;2.17;;
3625;SDS011;1827;50.534;8.316;2022-09-09T07:19:12;18.10;;;2.13;;
3625;SDS011;1827;50.534;8.316;2022-09-09T07:21:39;15.80;;;1.90;;
3625;SDS011;1827;50.534;8.316;2022-09-09T07:24:06;19.77;;;2.07;;
3625;SDS011;1827;50.534;8.316;2022-09-09T07:26:37;18.77;;;1.87;;
3625;SDS011;1827;50.534;8.316;2022-09-09T07:29:04;17.27;;;1.90;;
3625;SDS011;1827;50.534;8.316;2022-09-09T07:31:31;17.80;;;2.00;;
3625;SDS011;1827;50.534;8.316;2022-09-09T07:33:59;16.07;;;2.20;;
3625;SDS011;1827;50.534;8.316;2022-09-09T07:36:27;18.80;;;2.13;;
3625;SDS011;1827;50.534;8.316;2022-09-09T07:38:55;15.50;;;1.60;;
3625;SDS011;1827;50.534;8.316;2022-09-09T07:41:30;33.03;;;5.50;;
3625;SDS011;1827;50.534;8.316;2022-09-09T07:44:12;23.13;;;3.47;;
3625;SDS011;1827;50.534;8.316;2022-09-09T07:46:41;22.07;;;2.80;;
3625;SDS011;1827;50.534;8.316;2022-09-09T07:49:09;20.53;;;2.80;;
3625;SDS011;1827;50.534;8.316;2022-09-09T07:51:37;21.00;;;2.37;;
3625;SDS011;1827;50.534;8.316;2022-09-09T07:54:07;27.70;;;2.30;;
3625;SDS011;1827;50.534;8.316;2022-09-09T07:56:37;22.00;;;3.27;;
3625;SDS011;1827;50.534;8.316;2022-09-09T07:59:03;23.23;;;2.40;;
3625;SDS011;1827;50.534;8.316;2022-09-09T08:01:36;19.37;;;2.30;;
3625;SDS011;1827;50.534;8.316;2022-09-09T08:04:08;18.07;;;2.13;;
3625;SDS011;1827;50.534;8.316;2022-09-09T08:06:40;18.57;;;2.13;;
3625;SDS011;1827;50.534;8.316;2022-09-09T08:09:08;24.23;;;2.83;;
3625;SDS011;1827;50.534;8.316;2022-09-09T08:11:35;15.13;;;1.90;;
3625;SDS011;1827;50.534;8.316;2022-09-09T08:14:02;20.10;;;1.93;;
3625;SDS011;1827;50.534;8.316;2022-09-09T08:16:30;16.10;;;1.87;;
3625;SDS011;1827;50.534;8.316;2022-09-09T08:18:59;20.00;;;2.30;;
3625;SDS011;1827;50.534;8.316;2022-09-09T08:21:26;29.03;;;1.90;;
3625;SDS011;1827;50.534;8.316;2022-09-09T08:23:55;30.00;;;2.37;;
3625;SDS011;1827;50.534;8.316;2022-09-09T08:26:32;18.37;;;2.37;;
3625;SDS011;1827;50.534;8.316;2022-09-09T08:29:00;16.90;;;1.90;;
3625;SDS011;1827;50.534;8.316;2022-09-09T08:31:50;20.30;;;2.27;;
3625;SDS011;1827;50.534;8.316;2022-09-09T08:34:20;15.03;;;1.50;;
3625;SDS011;1827;50.534;8.316;2022-09-09T08:36:48;17.47;;;2.00;;
3625;SDS011;1827;50.534;8.316;2022-09-09T08:39:18;23.90;;;2.23;;
3625;SDS011;1827;50.534;8.316;2022-09-09T08:47:43;16.93;;;1.83;;
3625;SDS011;1827;50.534;8.316;2022-09-09T08:50:30;26.17;;;2.30;;
3625;SDS011;1827;50.534;8.316;2022-09-09T08:55:51;17.10;;;2.00;;
3625;SDS011;1827;50.534;8.316;2022-09-09T08:58:44;22.50;;;1.93;;
3625;SDS011;1827;50.534;8.316;2022-09-09T09:04:12;18.27;;;1.90;;
3625;SDS011;1827;50.534;8.316;2022-09-09T09:12:42;16.60;;;1.90;;
3625;SDS011;1827;50.534;8.316;2022-09-09T09:15:18;15.70;;;2.17;;
3625;SDS011;1827;50.534;8.316;2022-09-09T09:17:49;17.30;;;2.07;;
3625;SDS011;1827;50.534;8.316;2022-09-09T09:20:17;17.70;;;2.07;;
3625;SDS011;1827;50.534;8.316;2022-09-09T09:22:48;22.40;;;2.70;;
3625;SDS011;1827;50.534;8.316;2022-09-09T09:25:20;23.00;;;2.10;;
3625;SDS011;1827;50.534;8.316;2022-09-09T09:27:59;17.10;;;2.47;;
3625;SDS011;1827;50.534;8.316;2022-09-09T09:30:34;17.77;;;2.40;;
3625;SDS011;1827;50.534;8.316;2022-09-09T09:36:02;17.20;;;2.17;;
3625;SDS011;1827;50.534;8.316;2022-09-09T09:38:31;17.70;;;2.00;;
3625;SDS011;1827;50.534;8.316;2022-09-09T09:40:59;14.33;;;1.80;;
3625;SDS011;1827;50.534;8.316;2022-09-09T09:43:27;16.17;;;1.80;;
3625;SDS011;1827;50.534;8.316;2022-09-09T09:45:57;19.20;;;2.63;;
3625;SDS011;1827;50.534;8.316;2022-09-09T09:48:24;17.03;;;2.20;;
3625;SDS011;1827;50.534;8.316;2022-09-09T09:50:58;21.47;;;2.57;;
3625;SDS011;1827;50.534;8.316;2022-09-09T09:53:36;19.17;;;2.80;;
3625;SDS011;1827;50.534;8.316;2022-09-09T09:56:46;17.53;;;1.70;;
3625;SDS011;1827;50.534;8.316;2022-09-09T09:58:58;17.20;;;2.00;;
3625;SDS011;1827;50.534;8.316;2022-09-09T10:01:31;16.23;;;1.93;;
3625;SDS011;1827;50.534;8.316;2022-09-09T10:06:50;17.20;;;1.80;;
3625;SDS011;1827;50.534;8.316;2022-09-09T10:09:29;19.47;;;1.97;;
3625;SDS011;1827;50.534;8.316;2022-09-09T10:14:43;19.83;;;2.30;;
3625;SDS011;1827;50.534;8.316;2022-09-09T10:17:18;20.10;;;1.80;;
3625;SDS011;1827;50.534;8.316;2022-09-09T10:20:07;16.90;;;2.10;;
3625;SDS011;1827;50.534;8.316;2022-09-09T10:22:47;18.20;;;1.70;;
3625;SDS011;1827;50.534;8.316;2022-09-09T10:25:38;16.53;;;1.83;;
3625;SDS011;1827;50.534;8.316;2022-09-09T10:31:52;19.47;;;1.90;;
3625;SDS011;1827;50.534;8.316;2022-09-09T10:37:06;21.20;;;2.43;;
3625;SDS011;1827;50.534;8.316;2022-09-09T10:39:47;19.27;;;1.50;;
3625;SDS011;1827;50.534;8.316;2022-09-09T10:42:17;24.53;;;1.97;;
3625;SDS011;1827;50.534;8.316;2022-09-09T10:47:49;20.10;;;2.07;;
3625;SDS011;1827;50.534;8.316;2022-09-09T10:56:16;18.40;;;1.67;;
3625;SDS011;1827;50.534;8.316;2022-09-09T10:58:57;18.40;;;1.90;;
3625;SDS011;1827;50.534;8.316;2022-09-09T11:01:31;16.27;;;1.40;;
3625;SDS011;1827;50.534;8.316;2022-09-09T11:04:12;14.73;;;1.27;;
3625;SDS011;1827;50.534;8.316;2022-09-09T11:06:46;17.30;;;1.93;;
3625;SDS011;1827;50.534;8.316;2022-09-09T11:09:18;14.73;;;1.43;;
3625;SDS011;1827;50.534;8.316;2022-09-09T11:11:52;15.90;;;1.70;;
3625;SDS011;1827;50.534;8.316;2022-09-09T11:17:02;14.10;;;1.37;;
3625;SDS011;1827;50.534;8.316;2022-09-09T11:19:35;14.07;;;1.30;;
3625;SDS011;1827;50.534;8.316;2022-09-09T11:30:19;15.40;;;1.30;;
3625;SDS011;1827;50.534;8.316;2022-09-09T11:33:03;18.67;;;1.43;;
3625;SDS011;1827;50.534;8.316;2022-09-09T11:40:55;14.97;;;1.30;;
3625;SDS011;1827;50.534;8.316;2022-09-09T11:43:27;17.97;;;1.67;;
3625;SDS011;1827;50.534;8.316;2022-09-09T11:46:00;14.07;;;1.40;;
3625;SDS011;1827;50.534;8.316;2022-09-09T11:48:34;15.40;;;1.40;;
3625;SDS011;1827;50.534;8.316;2022-09-09T11:51:05;16.50;;;1.70;;
3625;SDS011;1827;50.534;8.316;2022-09-09T11:53:47;14.70;;;1.20;;
3625;SDS011;1827;50.534;8.316;2022-09-09T11:56:49;16.20;;;1.30;;
3625;SDS011;1827;50.534;8.316;2022-09-09T11:59:27;17.47;;;1.80;;
3625;SDS011;1827;50.534;8.316;2022-09-09T12:04:44;14.77;;;1.37;;
3625;SDS011;1827;50.534;8.316;2022-09-09T12:09:51;14.17;;;1.30;;
3625;SDS011;1827;50.534;8.316;2022-09-09T12:15:01;17.23;;;1.87;;
3625;SDS011;1827;50.534;8.316;2022-09-09T12:28:22;20.87;;;1.60;;
3625;SDS011;1827;50.534;8.316;2022-09-09T12:31:02;13.33;;;1.10;;
3625;SDS011;1827;50.534;8.316;2022-09-09T12:33:34;14.73;;;1.20;;
3625;SDS011;1827;50.534;8.316;2022-09-09T12:36:01;16.13;;;1.60;;
3625;SDS011;1827;50.534;8.316;2022-09-09T12:38:32;14.83;;;1.50;;
3625;SDS011;1827;50.534;8.316;2022-09-09T12:40:59;14.50;;;1.50;;
3625;SDS011;1827;50.534;8.316;2022-09-09T12:43:26;13.13;;;0.93;;
3625;SDS011;1827;50.534;8.316;2022-09-09T12:46:03;15.43;;;1.23;;
3625;SDS011;1827;50.534;8.316;2022-09-09T12:48:38;14.57;;;1.17;;
3625;SDS011;1827;50.534;8.316;2022-09-09T12:53:55;18.67;;;1.70;;
3625;SDS011;1827;50.534;8.316;2022-09-09T12:56:25;16.80;;;1.40;;
3625;SDS011;1827;50.534;8.316;2022-09-09T12:58:54;16.40;;;1.40;;
3625;SDS011;1827;50.534;8.316;2022-09-09T13:01:25;20.20;;;1.37;;
3625;SDS011;1827;50.534;8.316;2022-09-09T13:03:58;18.43;;;1.70;;
3625;SDS011;1827;50.534;8.316;2022-09-09T13:06:25;17.63;;;1.67;;
3625;SDS011;1827;50.534;8.316;2022-09-09T13:08:53;21.23;;;1.87;;
3625;SDS011;1827;50.534;8.316;2022-09-09T13:11:25;32.07;;;1.90;;
3625;SDS011;1827;50.534;8.316;2022-09-09T13:13:53;25.17;;;2.00;;
3625;SDS011;1827;50.534;8.316;2022-09-09T13:19:17;16.77;;;1.50;;
3625;SDS011;1827;50.534;8.316;2022-09-09T13:21:42;18.77;;;1.63;;
3625;SDS011;1827;50.534;8.316;2022-09-09T13:24:28;16.07;;;1.17;;
3625;SDS011;1827;50.534;8.316;2022-09-09T13:27:04;15.20;;;1.20;;
3625;SDS011;1827;50.534;8.316;2022-09-09T13:29:52;17.00;;;1.20;;
3625;SDS011;1827;50.534;8.316;2022-09-09T13:32:22;13.73;;;1.10;;
3625;SDS011;1827;50.534;8.316;2022-09-09T13:34:52;20.80;;;1.17;;
3625;SDS011;1827;50.534;8.316;2022-09-09T13:37:43;20.30;;;1.40;;
3625;SDS011;1827;50.534;8.316;2022-09-09T13:40:17;17.53;;;1.40;;
3625;SDS011;1827;50.534;8.316;2022-09-09T13:42:44;14.10;;;1.20;;
3625;SDS011;1827;50.534;8.316;2022-09-09T13:45:20;13.70;;;1.13;;
3625;SDS011;1827;50.534;8.316;2022-09-09T13:47:48;13.70;;;1.00;;
3625;SDS011;1827;50.534;8.316;2022-09-09T13:52:51;18.07;;;1.70;;
3625;SDS011;1827;50.534;8.316;2022-09-09T13:55:19;15.80;;;1.20;;
3625;SDS011;1827;50.534;8.316;2022-09-09T13:57:51;14.00;;;1.00;;
3625;SDS011;1827;50.534;8.316;2022-09-09T14:00:21;13.30;;;1.00;;
3625;SDS011;1827;50.534;8.316;2022-09-09T14:02:49;13.93;;;1.73;;
3625;SDS011;1827;50.534;8.316;2022-09-09T14:05:15;13.90;;;1.33;;
3625;SDS011;1827;50.534;8.316;2022-09-09T14:07:42;17.90;;;1.67;;
3625;SDS011;1827;50.534;8.316;2022-09-09T14:10:09;14.27;;;1.37;;
3625;SDS011;1827;50.534;8.316;2022-09-09T14:12:36;16.03;;;1.40;;
3625;SDS011;1827;50.534;8.316;2022-09-09T14:15:03;15.77;;;1.40;;
3625;SDS011;1827;50.534;8.316;2022-09-09T14:17:30;14.73;;;1.27;;
3625;SDS011;1827;50.534;8.316;2022-09-09T14:19:56;18.40;;;1.40;;
3625;SDS011;1827;50.534;8.316;2022-09-09T14:22:22;15.30;;;1.40;;
3625;SDS011;1827;50.534;8.316;2022-09-09T14:24:48;18.17;;;1.50;;
3625;SDS011;1827;50.534;8.316;2022-09-09T14:27:16;17.70;;;1.60;;
3625;SDS011;1827;50.534;8.316;2022-09-09T14:29:43;17.43;;;2.10;;
3625;SDS011;1827;50.534;8.316;2022-09-09T14:32:10;16.03;;;1.70;;
3625;SDS011;1827;50.534;8.316;2022-09-09T14:34:36;14.93;;;1.50;;
3625;SDS011;1827;50.534;8.316;2022-09-09T14:37:02;20.77;;;2.00;;
3625;SDS011;1827;50.534;8.316;2022-09-09T14:39:28;14.50;;;1.33;;
3625;SDS011;1827;50.534;8.316;2022-09-09T14:41:53;16.60;;;1.90;;
3625;SDS011;1827;50.534;8.316;2022-09-09T14:44:20;18.93;;;2.00;;
3625;SDS011;1827;50.534;8.316;2022-09-09T14:46:45;16.63;;;1.40;;
3625;SDS011;1827;50.534;8.316;2022-09-09T14:49:11;16.40;;;1.70;;
3625;SDS011;1827;50.534;8.316;2022-09-09T14:51:37;17.83;;;1.17;;
3625;SDS011;1827;50.534;8.316;2022-09-09T14:54:04;13.63;;;1.07;;
3625;SDS011;1827;50.534;8.316;2022-09-09T14:56:31;15.00;;;1.33;;
3625;SDS011;1827;50.534;8.316;2022-09-09T14:59:01;15.63;;;1.53;;
3625;SDS011;1827;50.534;8.316;2022-09-09T15:01:27;17.00;;;1.60;;
3625;SDS011;1827;50.534;8.316;2022-09-09T15:03:58;20.20;;;1.90;;
3625;SDS011;1827;50.534;8.316;2022-09-09T15:06:29;15.47;;;1.60;;
3625;SDS011;1827;50.534;8.316;2022-09-09T15:08:58;20.43;;;2.40;;
3625;SDS011;1827;50.534;8.316;2022-09-09T15:11:25;17.73;;;1.40;;
3625;SDS011;1827;50.534;8.316;2022-09-09T15:13:53;19.07;;;1.50;;
3625;SDS011;1827;50.534;8.316;2022-09-09T15:16:20;15.87;;;1.77;;
3625;SDS011;1827;50.534;8.316;2022-09-09T15:18:49;15.40;;;1.47;;
3625;SDS011;1827;50.534;8.316;2022-09-09T15:21:17;16.30;;;1.80;;
3625;SDS011;1827;50.534;8.316;2022-09-09T15:23:45;20.30;;;2.30;;
3625;SDS011;1827;50.534;8.316;2022-09-09T15:26:11;14.13;;;1.47;;
3625;SDS011;1827;50.534;8.316;2022-09-09T15:28:39;16.33;;;1.70;;
3625;SDS011;1827;50.534;8.316;2022-09-09T15:31:06;14.93;;;1.40;;
3625;SDS011;1827;50.534;8.316;2022-09-09T15:33:35;20.70;;;1.80;;
3625;SDS011;1827;50.534;8.316;2022-09-09T15:36:12;14.37;;;1.50;;
3625;SDS011;1827;50.534;8.316;2022-09-09T15:38:38;18.30;;;2.00;;
3625;SDS011;1827;50.534;8.316;2022-09-09T15:41:04;23.87;;;2.10;;
3625;SDS011;1827;50.534;8.316;2022-09-09T15:43:29;15.93;;;1.73;;
3625;SDS011;1827;50.534;8.316;2022-09-09T15:45:58;19.37;;;2.17;;
3625;SDS011;1827;50.534;8.316;2022-09-09T15:48:33;14.73;;;1.70;;
3625;SDS011;1827;50.534;8.316;2022-09-09T15:51:02;18.17;;;2.20;;
3625;SDS011;1827;50.534;8.316;2022-09-09T15:53:29;20.83;;;2.77;;
3625;SDS011;1827;50.534;8.316;2022-09-09T15:55:57;19.30;;;2.30;;
3625;SDS011;1827;50.534;8.316;2022-09-09T15:58:24;23.53;;;2.37;;
3625;SDS011;1827;50.534;8.316;2022-09-09T16:00:49;20.50;;;1.80;;
3625;SDS011;1827;50.534;8.316;2022-09-09T16:03:16;21.20;;;1.77;;
3625;SDS011;1827;50.534;8.316;2022-09-09T16:05:42;24.40;;;2.43;;
3625;SDS011;1827;50.534;8.316;2022-09-09T16:08:08;22.77;;;2.47;;
3625;SDS011;1827;50.534;8.316;2022-09-09T16:10:34;22.63;;;2.60;;
3625;SDS011;1827;50.534;8.316;2022-09-09T16:12:59;20.47;;;2.80;;
3625;SDS011;1827;50.534;8.316;2022-09-09T16:15:25;26.53;;;2.70;;
3625;SDS011;1827;50.534;8.316;2022-09-09T16:17:53;18.80;;;2.27;;
3625;SDS011;1827;50.534;8.316;2022-09-09T16:20:18;17.57;;;1.90;;
3625;SDS011;1827;50.534;8.316;2022-09-09T16:22:45;17.20;;;1.80;;
3625;SDS011;1827;50.534;8.316;2022-09-09T16:25:11;16.63;;;1.53;;
3625;SDS011;1827;50.534;8.316;2022-09-09T16:27:37;19.43;;;1.93;;
3625;SDS011;1827;50.534;8.316;2022-09-09T16:30:02;14.90;;;1.80;;
3625;SDS011;1827;50.534;8.316;2022-09-09T16:32:29;21.43;;;1.50;;
3625;SDS011;1827;50.534;8.316;2022-09-09T16:34:55;16.63;;;1.77;;
3625;SDS011;1827;50.534;8.316;2022-09-09T16:37:23;17.63;;;1.50;;
3625;SDS011;1827;50.534;8.316;2022-09-09T16:39:49;16.07;;;1.40;;
3625;SDS011;1827;50.534;8.316;2022-09-09T16:42:15;15.20;;;1.50;;
3625;SDS011;1827;50.534;8.316;2022-09-09T16:44:42;16.93;;;1.60;;
3625;SDS011;1827;50.534;8.316;2022-09-09T16:47:07;16.60;;;1.60;;
3625;SDS011;1827;50.534;8.316;2022-09-09T16:49:33;21.10;;;2.13;;
3625;SDS011;1827;50.534;8.316;2022-09-09T16:51:59;16.50;;;1.90;;
3625;SDS011;1827;50.534;8.316;2022-09-09T16:54:25;19.17;;;2.10;;
3625;SDS011;1827;50.534;8.316;2022-09-09T16:57:00;17.90;;;2.07;;
3625;SDS011;1827;50.534;8.316;2022-09-09T16:59:25;15.10;;;1.83;;
3625;SDS011;1827;50.534;8.316;2022-09-09T17:01:51;15.30;;;1.50;;
3625;SDS011;1827;50.534;8.316;2022-09-09T17:04:18;14.50;;;1.40;;
3625;SDS011;1827;50.534;8.316;2022-09-09T17:06:46;14.57;;;1.43;;
3625;SDS011;1827;50.534;8.316;2022-09-09T17:09:14;14.70;;;1.30;;
3625;SDS011;1827;50.534;8.316;2022-09-09T17:11:40;19.23;;;1.57;;
3625;SDS011;1827;50.534;8.316;2022-09-09T17:14:07;14.23;;;1.30;;
3625;SDS011;1827;50.534;8.316;2022-09-09T17:16:36;15.97;;;1.70;;
3625;SDS011;1827;50.534;8.316;2022-09-09T17:19:04;16.90;;;1.60;;
3625;SDS011;1827;50.534;8.316;2022-09-09T17:21:31;14.73;;;1.40;;
3625;SDS011;1827;50.534;8.316;2022-09-09T17:23:57;17.93;;;1.77;;
3625;SDS011;1827;50.534;8.316;2022-09-09T17:26:28;23.27;;;2.27;;
3625;SDS011;1827;50.534;8.316;2022-09-09T17:28:56;17.77;;;2.20;;
3625;SDS011;1827;50.534;8.316;2022-09-09T17:31:23;18.10;;;2.10;;
3625;SDS011;1827;50.534;8.316;2022-09-09T17:33:50;19.17;;;2.53;;
3625;SDS011;1827;50.534;8.316;2022-09-09T17:38:50;28.10;;;2.97;;
3625;SDS011;1827;50.534;8.316;2022-09-09T17:41:18;16.57;;;2.17;;
3625;SDS011;1827;50.534;8.316;2022-09-09T17:43:49;19.70;;;2.17;;
3625;SDS011;1827;50.534;8.316;2022-09-09T17:46:16;19.00;;;2.43;;
3625;SDS011;1827;50.534;8.316;2022-09-09T17:48:59;23.50;;;2.07;;
3625;SDS011;1827;50.534;8.316;2022-09-09T17:51:32;18.60;;;1.90;;
3625;SDS011;1827;50.534;8.316;2022-09-09T17:54:06;16.40;;;1.80;;
3625;SDS011;1827;50.534;8.316;2022-09-09T17:56:37;19.20;;;1.90;;
3625;SDS011;1827;50.534;8.316;2022-09-09T17:59:07;19.00;;;1.63;;
3625;SDS011;1827;50.534;8.316;2022-09-09T18:01:43;17.67;;;2.00;;
3625;SDS011;1827;50.534;8.316;2022-09-09T18:04:24;15.40;;;1.70;;
3625;SDS011;1827;50.534;8.316;2022-09-09T18:06:59;17.50;;;2.30;;
3625;SDS011;1827;50.534;8.316;2022-09-09T18:09:27;17.00;;;2.00;;
3625;SDS011;1827;50.534;8.316;2022-09-09T18:11:59;18.43;;;1.87;;
3625;SDS011;1827;50.534;8.316;2022-09-09T18:14:29;17.10;;;1.80;;
3625;SDS011;1827;50.534;8.316;2022-09-09T18:16:56;14.80;;;1.70;;
3625;SDS011;1827;50.534;8.316;2022-09-09T18:19:26;16.30;;;1.80;;
3625;SDS011;1827;50.534;8.316;2022-09-09T18:22:04;17.43;;;1.83;;
3625;SDS011;1827;50.534;8.316;2022-09-09T18:24:33;18.30;;;1.90;;
3625;SDS011;1827;50.534;8.316;2022-09-09T18:27:04;16.67;;;2.17;;
3625;SDS011;1827;50.534;8.316;2022-09-09T18:29:30;17.10;;;2.00;;
3625;SDS011;1827;50.534;8.316;2022-09-09T18:32:01;18.10;;;1.60;;
3625;SDS011;1827;50.534;8.316;2022-09-09T18:34:27;15.47;;;1.60;;
3625;SDS011;1827;50.534;8.316;2022-09-09T18:36:54;16.70;;;1.80;;
3625;SDS011;1827;50.534;8.316;2022-09-09T18:39:25;17.43;;;1.80;;
3625;SDS011;1827;50.534;8.316;2022-09-09T18:41:53;15.67;;;1.83;;
3625;SDS011;1827;50.534;8.316;2022-09-09T18:44:24;16.23;;;1.80;;
3625;SDS011;1827;50.534;8.316;2022-09-09T18:46:51;16.03;;;1.97;;
3625;SDS011;1827;50.534;8.316;2022-09-09T18:49:19;16.33;;;1.63;;
3625;SDS011;1827;50.534;8.316;2022-09-09T18:54:40;16.63;;;2.00;;
3625;SDS011;1827;50.534;8.316;2022-09-09T18:57:10;17.80;;;1.90;;
3625;SDS011;1827;50.534;8.316;2022-09-09T18:59:36;18.07;;;2.27;;
3625;SDS011;1827;50.534;8.316;2022-09-09T19:02:02;16.40;;;1.90;;
3625;SDS011;1827;50.534;8.316;2022-09-09T19:04:28;16.47;;;1.90;;
3625;SDS011;1827;50.534;8.316;2022-09-09T19:06:55;18.23;;;1.90;;
3625;SDS011;1827;50.534;8.316;2022-09-09T19:09:27;17.63;;;1.80;;
3625;SDS011;1827;50.534;8.316;2022-09-09T19:11:58;18.63;;;2.10;;
3625;SDS011;1827;50.534;8.316;2022-09-09T19:14:24;15.77;;;2.10;;
3625;SDS011;1827;50.534;8.316;2022-09-09T19:16:53;17.63;;;2.10;;
3625;SDS011;1827;50.534;8.316;2022-09-09T19:19:21;16.40;;;1.90;;
3625;SDS011;1827;50.534;8.316;2022-09-09T19:21:48;17.10;;;1.90;;
3625;SDS011;1827;50.534;8.316;2022-09-09T19:24:16;16.57;;;1.97;;
3625;SDS011;1827;50.534;8.316;2022-09-09T19:26:45;16.80;;;2.17;;
3625;SDS011;1827;50.534;8.316;2022-09-09T19:29:18;16.00;;;1.70;;
3625;SDS011;1827;50.534;8.316;2022-09-09T19:31:48;16.60;;;2.10;;
3625;SDS011;1827;50.534;8.316;2022-09-09T19:34:15;14.30;;;1.60;;
3625;SDS011;1827;50.534;8.316;2022-09-09T19:36:44;14.97;;;1.80;;
3625;SDS011;1827;50.534;8.316;2022-09-09T19:39:11;15.87;;;1.93;;
3625;SDS011;1827;50.534;8.316;2022-09-09T19:41:38;19.67;;;1.97;;
3625;SDS011;1827;50.534;8.316;2022-09-09T19:44:05;16.20;;;1.83;;
3625;SDS011;1827;50.534;8.316;2022-09-09T19:46:33;17.23;;;2.00;;
3625;SDS011;1827;50.534;8.316;2022-09-09T19:49:01;19.23;;;2.50;;
3625;SDS011;1827;50.534;8.316;2022-09-09T19:51:46;19.17;;;1.80;;
3625;SDS011;1827;50.534;8.316;2022-09-09T19:54:15;15.07;;;1.87;;
3625;SDS011;1827;50.534;8.316;2022-09-09T19:56:41;15.53;;;2.20;;
3625;SDS011;1827;50.534;8.316;2022-09-09T19:59:08;16.77;;;2.60;;
3625;SDS011;1827;50.534;8.316;2022-09-09T20:01:37;16.50;;;2.60;;
3625;SDS011;1827;50.534;8.316;2022-09-09T20:04:05;19.80;;;2.87;;
3625;SDS011;1827;50.534;8.316;2022-09-09T20:06:32;19.20;;;2.83;;
3625;SDS011;1827;50.534;8.316;2022-09-09T20:09:00;16.40;;;2.60;;
3625;SDS011;1827;50.534;8.316;2022-09-09T20:11:26;16.67;;;2.47;;
3625;SDS011;1827;50.534;8.316;2022-09-09T20:13:52;17.90;;;3.13;;
3625;SDS011;1827;50.534;8.316;2022-09-09T20:16:22;18.23;;;2.87;;
3625;SDS011;1827;50.534;8.316;2022-09-09T20:18:51;17.00;;;2.73;;
3625;SDS011;1827;50.534;8.316;2022-09-09T20:23:49;17.83;;;2.60;;
3625;SDS011;1827;50.534;8.316;2022-09-09T20:26:19;18.33;;;2.80;;
3625;SDS011;1827;50.534;8.316;2022-09-09T20:28:47;18.40;;;2.60;;
3625;SDS011;1827;50.534;8.316;2022-09-09T20:31:16;22.53;;;3.73;;
3625;SDS011;1827;50.534;8.316;2022-09-09T20:33:44;18.20;;;2.90;;
3625;SDS011;1827;50.534;8.316;2022-09-09T20:36:21;19.63;;;2.50;;
3625;SDS011;1827;50.534;8.316;2022-09-09T20:38:52;19.10;;;2.47;;
3625;SDS011;1827;50.534;8.316;2022-09-09T20:41:20;15.73;;;2.23;;
3625;SDS011;1827;50.534;8.316;2022-09-09T20:43:47;20.30;;;2.53;;
3625;SDS011;1827;50.534;8.316;2022-09-09T20:46:18;16.30;;;2.30;;
3625;SDS011;1827;50.534;8.316;2022-09-09T20:48:45;16.37;;;2.17;;
3625;SDS011;1827;50.534;8.316;2022-09-09T20:51:12;16.13;;;2.17;;
3625;SDS011;1827;50.534;8.316;2022-09-09T20:53:41;15.60;;;2.40;;
3625;SDS011;1827;50.534;8.316;2022-09-09T20:56:07;18.97;;;2.20;;
3625;SDS011;1827;50.534;8.316;2022-09-09T20:58:34;15.23;;;2.00;;
3625;SDS011;1827;50.534;8.316;2022-09-09T21:01:01;17.10;;;2.40;;
3625;SDS011;1827;50.534;8.316;2022-09-09T21:03:30;16.97;;;2.70;;
3625;SDS011;1827;50.534;8.316;2022-09-09T21:06:01;15.40;;;2.30;;
3625;SDS011;1827;50.534;8.316;2022-09-09T21:08:31;17.03;;;2.60;;
3625;SDS011;1827;50.534;8.316;2022-09-09T21:10:58;15.57;;;2.40;;
3625;SDS011;1827;50.534;8.316;2022-09-09T21:13:26;17.00;;;2.53;;
3625;SDS011;1827;50.534;8.316;2022-09-09T21:15:53;16.80;;;2.20;;
3625;SDS011;1827;50.534;8.316;2022-09-09T21:18:19;17.97;;;2.30;;
3625;SDS011;1827;50.534;8.316;2022-09-09T21:20:46;18.40;;;2.03;;
3625;SDS011;1827;50.534;8.316;2022-09-09T21:23:13;15.73;;;2.17;;
3625;SDS011;1827;50.534;8.316;2022-09-09T21:25:40;18.00;;;2.53;;
3625;SDS011;1827;50.534;8.316;2022-09-09T21:28:07;16.77;;;2.43;;
3625;SDS011;1827;50.534;8.316;2022-09-09T21:30:36;20.27;;;2.30;;
3625;SDS011;1827;50.534;8.316;2022-09-09T21:33:04;18.37;;;2.43;;
3625;SDS011;1827;50.534;8.316;2022-09-09T21:35:33;18.23;;;3.03;;
3625;SDS011;1827;50.534;8.316;2022-09-09T21:38:00;15.60;;;2.50;;
3625;SDS011;1827;50.534;8.316;2022-09-09T21:40:28;21.77;;;3.10;;
3625;SDS011;1827;50.534;8.316;2022-09-09T21:42:53;19.90;;;2.90;;
3625;SDS011;1827;50.534;8.316;2022-09-09T21:45:20;18.80;;;3.27;;
3625;SDS011;1827;50.534;8.316;2022-09-09T21:47:47;22.30;;;3.00;;
3625;SDS011;1827;50.534;8.316;2022-09-09T21:50:13;16.20;;;2.57;;
3625;SDS011;1827;50.534;8.316;2022-09-09T21:52:39;16.07;;;2.70;;
3625;SDS011;1827;50.534;8.316;2022-09-09T21:55:05;17.50;;;3.17;;
3625;SDS011;1827;50.534;8.316;2022-09-09T21:57:33;19.10;;;3.10;;
3625;SDS011;1827;50.534;8.316;2022-09-09T21:59:59;25.33;;;3.57;;